Time;durP1;ratioP1;P1;durP2;ratioP2;P2;SDS_P1;SDS_P2;PMS_P1;PMS_P2;Temp;Humidity;BMP_temperature;BMP_pressure;BME280_temperature;BME280_humidity;BME280_pressure;Samples;Min_cycle;Max_cycle;Signal;HPM_P1;HPM_P2
2022/08/17 00:01:24;;;;;;;0.68;0.63;;;23.00;70.90;;;;;;7392318;19;20025;-83
2022/08/17 00:03:54;;;;;;;1.05;0.98;;;22.90;70.10;;;;;;7371312;19;20383;-82
2022/08/17 00:06:26;;;;;;;1.63;1.52;;;22.90;70.10;;;;;;7372134;19;20018;-82
2022/08/17 00:08:58;;;;;;;0.50;0.32;;;22.80;70.00;;;;;;7370602;19;20015;-82
2022/08/17 00:11:30;;;;;;;3.35;1.13;;;22.80;70.10;;;;;;7370576;19;20073;-82
2022/08/17 00:14:08;;;;;;;1.20;0.70;;;22.80;70.20;;;;;;7370358;19;20015;-82
2022/08/17 00:16:40;;;;;;;9.43;2.15;;;22.80;70.70;;;;;;7389817;19;20118;-83
2022/08/17 00:19:12;;;;;;;3.90;1.80;;;22.80;70.80;;;;;;7371437;19;20022;-82
2022/08/17 00:21:45;;;;;;;3.28;0.82;;;22.90;71.00;;;;;;7370516;19;20024;-83
2022/08/17 00:24:14;;;;;;;3.95;1.15;;;22.80;70.80;;;;;;7369950;19;20117;-83
2022/08/17 00:26:43;;;;;;;3.50;2.40;;;22.90;70.70;;;;;;7369326;19;20043;-82
2022/08/17 00:29:15;;;;;;;0.93;0.93;;;22.80;70.60;;;;;;7370628;19;20018;-82
2022/08/17 00:31:43;;;;;;;1.33;1.23;;;22.90;70.40;;;;;;7389969;19;20038;-82
2022/08/17 00:34:12;;;;;;;0.60;0.55;;;22.90;70.50;;;;;;7369527;19;20512;-82
2022/08/17 00:36:41;;;;;;;0.50;0.50;;;22.90;70.40;;;;;;7367783;19;20019;-82
2022/08/17 00:39:10;;;;;;;3.20;1.15;;;22.90;70.70;;;;;;7371248;19;20015;-82
2022/08/17 00:41:39;;;;;;;1.45;1.05;;;22.80;70.70;;;;;;7370142;19;20015;-83
2022/08/17 00:44:08;;;;;;;1.42;0.80;;;22.90;70.80;;;;;;7373682;19;20434;-80
2022/08/17 00:46:46;;;;;;;0.50;0.50;;;22.80;70.60;;;;;;7391748;19;20022;-81
2022/08/17 00:49:18;;;;;;;1.40;1.30;;;22.80;70.20;;;;;;7369931;19;20014;-81
2022/08/17 00:51:51;;;;;;;1.98;0.85;;;22.70;70.20;;;;;;7371764;19;20634;-82
2022/08/17 00:54:29;;;;;;;3.13;0.98;;;22.70;70.80;;;;;;7372170;19;20480;-82
2022/08/17 00:57:01;;;;;;;0.75;0.75;;;22.70;70.70;;;;;;7371894;19;20380;-83
2022/08/17 00:59:33;;;;;;;3.67;1.70;;;22.60;70.60;;;;;;7375981;19;20097;-82
2022/08/17 01:02:06;;;;;;;2.40;1.65;;;22.70;71.00;;;;;;7373593;19;20046;-83
2022/08/17 01:04:35;;;;;;;1.08;0.95;;;22.70;70.80;;;;;;7396951;19;20078;-83
2022/08/17 01:07:06;;;;;;;4.07;0.73;;;22.70;71.00;;;;;;7372724;19;20025;-83
2022/08/17 01:09:35;;;;;;;1.08;0.70;;;22.70;71.00;;;;;;7370330;19;20099;-82
2022/08/17 01:12:05;;;;;;;1.00;0.75;;;22.70;71.00;;;;;;7370546;19;20078;-82
2022/08/17 01:14:34;;;;;;;1.58;1.17;;;22.70;70.60;;;;;;7371919;19;20323;-83
2022/08/17 01:17:05;;;;;;;1.65;1.55;;;22.70;70.70;;;;;;7369420;19;20081;-84
2022/08/17 01:19:40;;;;;;;0.63;0.63;;;22.60;70.00;;;;;;7391463;19;20493;-82
2022/08/17 01:22:21;;;;;;;0.73;0.73;;;22.60;70.10;;;;;;7369293;19;20011;-83
2022/08/17 01:24:55;;;;;;;0.55;0.55;;;22.60;70.30;;;;;;7370001;19;20436;-83
2022/08/17 01:27:24;;;;;;;2.42;0.75;;;22.60;70.50;;;;;;7369978;19;20017;-83
2022/08/17 01:29:58;;;;;;;2.83;1.05;;;22.60;70.30;;;;;;7370272;19;20022;-83
2022/08/17 01:32:29;;;;;;;2.20;1.33;;;22.50;70.60;;;;;;7370576;19;20015;-83
2022/08/17 01:34:59;;;;;;;1.45;0.55;;;22.50;70.50;;;;;;7369844;19;20019;-83
2022/08/17 01:37:40;;;;;;;0.30;0.30;;;22.50;70.30;;;;;;7388881;19;20018;-83
2022/08/17 01:40:16;;;;;;;2.38;1.58;;;22.50;70.40;;;;;;7368771;19;20035;-83
2022/08/17 01:42:49;;;;;;;2.17;0.65;;;22.50;70.20;;;;;;7369508;19;20026;-83
2022/08/17 01:45:23;;;;;;;0.32;0.22;;;22.50;70.50;;;;;;7368664;19;20010;-83
2022/08/17 01:47:53;;;;;;;1.27;1.17;;;22.50;70.20;;;;;;7371507;19;20082;-84
2022/08/17 01:50:33;;;;;;;2.92;2.08;;;22.50;70.30;;;;;;7369803;19;20015;-83
2022/08/17 01:53:12;;;;;;;0.88;0.73;;;22.50;70.30;;;;;;7366791;19;20007;-84
2022/08/17 01:55:47;;;;;;;8.15;2.28;;;22.40;70.00;;;;;;7389983;19;20026;-83
2022/08/17 01:58:16;;;;;;;1.25;1.13;;;22.40;69.90;;;;;;7364447;19;20038;-83
2022/08/17 02:00:46;;;;;;;0.88;0.45;;;22.40;69.90;;;;;;7368226;19;20010;-83
2022/08/17 02:03:16;;;;;;;1.53;0.87;;;22.40;70.10;;;;;;7369314;19;20429;-83
2022/08/17 02:05:47;;;;;;;1.13;0.75;;;22.40;69.80;;;;;;7368389;19;20043;-83
2022/08/17 02:08:19;;;;;;;;;;;22.40;69.90;;;;;;7371494;19;20465;-84
2022/08/17 02:10:48;;;;;;;;;;;22.30;69.70;;;;;;7368701;19;20274;-83
2022/08/17 02:13:18;;;;;;;1.00;0.85;;;22.30;69.90;;;;;;7392315;19;19927;-84
2022/08/17 02:15:47;;;;;;;0.85;0.82;;;22.20;70.20;;;;;;7370530;19;20444;-84
2022/08/17 02:18:17;;;;;;;1.95;0.63;;;22.20;70.40;;;;;;7368448;19;20081;-83
2022/08/17 02:20:46;;;;;;;3.28;1.23;;;22.30;70.30;;;;;;7367970;19;20014;-83
2022/08/17 02:23:15;;;;;;;21.52;1.08;;;22.30;70.30;;;;;;7367455;19;20019;-83
2022/08/17 02:25:49;;;;;;;0.98;0.98;;;22.30;70.00;;;;;;7390244;19;20034;-83
2022/08/17 02:28:19;;;;;;;0.93;0.93;;;22.30;69.80;;;;;;7367902;19;20014;-83
2022/08/17 02:30:48;;;;;;;0.30;0.30;;;22.30;69.70;;;;;;7367318;19;20014;-83
2022/08/17 02:33:17;;;;;;;1.65;1.05;;;22.30;69.60;;;;;;7366738;19;20007;-83
2022/08/17 02:35:46;;;;;;;0.60;0.60;;;22.20;69.60;;;;;;7369001;19;20023;-82
2022/08/17 02:38:15;;;;;;;2.92;1.52;;;22.20;69.40;;;;;;7369488;19;20022;-83
2022/08/17 02:40:46;;;;;;;1.05;1.05;;;22.20;69.60;;;;;;7389915;19;20020;-83
2022/08/17 02:43:15;;;;;;;0.38;0.38;;;22.20;69.70;;;;;;7370246;19;20090;-83
2022/08/17 02:45:44;;;;;;;0.93;0.93;;;22.20;69.70;;;;;;7370134;19;20101;-83
2022/08/17 02:48:13;;;;;;;0.52;0.52;;;22.20;69.40;;;;;;7366973;19;20125;-83
2022/08/17 02:50:42;;;;;;;1.65;1.13;;;22.20;69.40;;;;;;7365754;19;20022;-82
2022/08/17 02:53:11;;;;;;;0.90;0.80;;;22.20;69.40;;;;;;7366847;19;20125;-83
2022/08/17 02:55:42;;;;;;;0.47;0.35;;;22.30;69.70;;;;;;7390603;19;20025;-82
2022/08/17 02:58:13;;;;;;;3.97;1.13;;;22.30;69.50;;;;;;7368010;19;20422;-83
2022/08/17 03:00:46;;;;;;;0.80;0.80;;;22.30;69.70;;;;;;7368207;19;20441;-82
2022/08/17 03:03:17;;;;;;;0.65;0.65;;;22.30;69.70;;;;;;7370174;19;20799;-83
2022/08/17 03:05:49;;;;;;;2.20;1.20;;;22.30;69.60;;;;;;7370886;19;20764;-82
2022/08/17 03:08:19;;;;;;;0.40;0.40;;;22.30;69.40;;;;;;7369371;19;20019;-82
2022/08/17 03:10:49;;;;;;;0.55;0.50;;;22.20;69.10;;;;;;7375056;19;20386;-83
2022/08/17 03:13:20;;;;;;;0.63;0.63;;;22.20;69.20;;;;;;7397606;19;20021;-82
2022/08/17 03:15:50;;;;;;;2.20;0.40;;;22.10;69.30;;;;;;7376342;19;20006;-82
2022/08/17 03:18:22;;;;;;;0.38;0.38;;;22.10;69.60;;;;;;7375497;19;20853;-82
2022/08/17 03:20:51;;;;;;;1.42;1.33;;;22.20;69.90;;;;;;7377005;19;20010;-82
2022/08/17 03:23:19;;;;;;;0.57;0.57;;;22.20;69.70;;;;;;7378524;19;20023;-83
2022/08/17 03:25:48;;;;;;;0.40;0.40;;;22.20;69.80;;;;;;7375873;19;20100;-84
2022/08/17 03:28:20;;;;;;;1.02;1.02;;;22.20;69.70;;;;;;7399089;19;20019;-83
2022/08/17 03:30:49;;;;;;;0.20;0.20;;;22.30;69.60;;;;;;7378657;19;20425;-83
2022/08/17 03:33:19;;;;;;;1.30;0.47;;;22.20;69.30;;;;;;7377597;19;20750;-82
2022/08/17 03:35:47;;;;;;;0.60;0.60;;;22.20;69.40;;;;;;7379736;19;20086;-83
2022/08/17 03:38:17;;;;;;;0.38;0.38;;;22.20;69.40;;;;;;7376697;19;20025;-83
2022/08/17 03:40:47;;;;;;;1.45;1.05;;;22.20;69.90;;;;;;7389535;19;20297;-83
2022/08/17 03:43:17;;;;;;;0.90;0.50;;;22.20;70.00;;;;;;7406278;19;20014;-83
2022/08/17 03:56:44;;;;;;;0.80;0.47;;;22.30;70.00;;;;;;7375328;19;20015;-83
2022/08/17 03:59:15;;;;;;;0.50;0.50;;;22.30;70.10;;;;;;7371231;19;20023;-82
2022/08/17 04:01:48;;;;;;;;;;;22.30;70.20;;;;;;7392588;19;20052;-83
2022/08/17 04:04:17;;;;;;;1.75;1.10;;;22.30;70.20;;;;;;7372058;19;19923;-83
2022/08/17 04:06:46;;;;;;;1.70;0.82;;;22.30;70.00;;;;;;7372522;19;20031;-83
2022/08/17 04:09:15;;;;;;;0.08;0.08;;;22.30;70.00;;;;;;7373751;19;20109;-82
2022/08/17 04:11:44;;;;;;;0.73;0.73;;;22.30;70.10;;;;;;7371225;19;20014;-83
2022/08/17 04:14:13;;;;;;;0.80;0.80;;;22.30;70.40;;;;;;7371836;19;20090;-83
2022/08/17 04:16:42;;;;;;;0.65;0.63;;;22.20;70.30;;;;;;7394006;19;20025;-83
2022/08/17 04:19:13;;;;;;;0.88;0.88;;;22.30;70.80;;;;;;7374024;19;20102;-83
2022/08/17 04:21:43;;;;;;;2.67;0.82;;;22.30;70.90;;;;;;7369867;19;20082;-84
2022/08/17 04:24:11;;;;;;;0.55;0.50;;;22.30;70.90;;;;;;7370448;19;20021;-83
2022/08/17 04:26:40;;;;;;;9.07;1.80;;;22.30;71.00;;;;;;7371613;19;20061;-83
2022/08/17 04:29:09;;;;;;;0.80;0.40;;;22.30;70.80;;;;;;7371042;19;20377;-83
2022/08/17 04:31:38;;;;;;;1.17;1.05;;;22.30;70.60;;;;;;7390732;19;20017;-83
2022/08/17 04:34:07;;;;;;;18.92;12.13;;;22.30;70.90;;;;;;7371731;19;20070;-83
2022/08/17 04:36:38;;;;;;;22.55;13.30;;;22.30;71.00;;;;;;7372360;19;20456;-84
2022/08/17 04:39:07;;;;;;;24.80;12.57;;;22.20;71.20;;;;;;7369445;19;20033;-83
2022/08/17 04:44:17;;;;;;;19.08;11.55;;;22.30;71.50;;;;;;7372654;19;20618;-83
2022/08/17 04:46:49;;;;;;;23.30;13.27;;;22.30;71.50;;;;;;7377178;19;20693;-83
2022/08/17 04:49:18;;;;;;;23.27;12.68;;;22.30;71.50;;;;;;7392997;19;20018;-83
2022/08/17 04:51:49;;;;;;;21.95;14.25;;;22.30;71.40;;;;;;7370192;19;20014;-83
2022/08/17 04:54:21;;;;;;;25.60;13.50;;;22.30;71.50;;;;;;7370058;19;20089;-83
2022/08/17 04:56:50;;;;;;;21.20;12.60;;;22.30;71.30;;;;;;7370787;19;20085;-83
2022/08/17 04:59:21;;;;;;;23.20;13.05;;;22.30;71.40;;;;;;7368734;19;20090;-83
2022/08/17 05:01:53;;;;;;;26.90;13.95;;;22.30;71.50;;;;;;7370725;19;20086;-83
2022/08/17 05:04:24;;;;;;;28.50;14.23;;;22.30;71.40;;;;;;7391909;19;20034;-83
2022/08/17 05:06:56;;;;;;;35.90;15.00;;;22.30;71.60;;;;;;7370405;19;20087;-83
2022/08/17 05:09:25;;;;;;;22.30;13.63;;;22.20;71.60;;;;;;7369605;19;20458;-82
2022/08/17 05:11:54;;;;;;;27.20;13.60;;;22.30;71.80;;;;;;7371922;19;20017;-83
2022/08/17 05:14:22;;;;;;;23.73;13.48;;;22.20;71.80;;;;;;7373117;19;20530;-82
2022/08/17 05:16:51;;;;;;;19.38;13.13;;;22.20;71.80;;;;;;7370141;19;20094;-82
2022/08/17 05:19:20;;;;;;;24.05;12.63;;;22.20;71.70;;;;;;7388522;19;20037;-81
2022/08/17 05:21:50;;;;;;;22.10;13.57;;;22.20;71.90;;;;;;7368978;19;20082;-83
2022/08/17 05:24:22;;;;;;;26.02;15.00;;;22.20;71.90;;;;;;7370879;19;20011;-83
2022/08/17 05:26:50;;;;;;;27.10;15.07;;;22.10;71.80;;;;;;7370935;19;20709;-83
2022/08/17 05:29:19;;;;;;;29.50;15.82;;;22.10;71.90;;;;;;7369361;19;20149;-82
2022/08/17 05:31:48;;;;;;;29.88;14.65;;;22.10;72.10;;;;;;7367670;19;20018;-82
2022/08/17 05:34:17;;;;;;;26.95;14.82;;;22.10;72.40;;;;;;7387096;19;20021;-82
2022/08/17 05:36:46;;;;;;;22.65;13.18;;;22.10;72.30;;;;;;7367706;19;20106;-82
2022/08/17 05:39:16;;;;;;;19.08;13.27;;;22.20;72.30;;;;;;7368662;19;20015;-82
2022/08/17 05:41:48;;;;;;;22.58;13.27;;;22.20;72.40;;;;;;7367815;19;20019;-82
2022/08/17 05:44:17;;;;;;;25.50;13.65;;;22.20;72.40;;;;;;7369284;19;20018;-82
2022/08/17 05:46:50;;;;;;;31.13;16.60;;;22.30;72.40;;;;;;7374409;19;20030;-82
2022/08/17 05:49:24;;;;;;;22.70;15.45;;;22.30;72.10;;;;;;7393103;19;20524;-83
2022/08/17 05:52:19;;;;;;;29.08;14.23;;;22.20;72.40;;;;;;7370712;19;20022;-82
2022/08/17 05:55:03;;;;;;;35.85;17.95;;;22.30;72.60;;;;;;7369311;19;20019;-82
2022/08/17 05:57:45;;;;;;;23.77;15.80;;;22.30;72.30;;;;;;7367912;19;20207;-83
2022/08/17 06:00:16;;;;;;;;;;;22.30;72.40;;;;;;7369161;19;20046;-82
2022/08/17 06:02:58;;;;;;;34.95;17.58;;;22.50;72.70;;;;;;7368823;19;19915;-83
2022/08/17 06:05:42;;;;;;;31.60;16.13;;;22.40;72.70;;;;;;7368468;19;20105;-82
2022/08/17 06:08:21;;;;;;;23.52;16.05;;;22.40;72.90;;;;;;7370865;19;20006;-82
2022/08/17 06:11:01;;;;;;;26.35;15.60;;;22.50;73.00;;;;;;7368684;19;20592;-83
2022/08/17 06:13:49;;;;;;;24.17;15.75;;;22.50;73.10;;;;;;7389454;19;20031;-82
2022/08/17 06:16:21;;;;;;;21.45;15.35;;;22.60;73.30;;;;;;7366664;19;20014;-83
2022/08/17 06:19:02;;;;;;;27.90;15.50;;;22.70;73.20;;;;;;7365591;19;20018;-82
2022/08/17 06:21:34;;;;;;;;;;;22.70;73.40;;;;;;7369412;19;20014;-83
2022/08/17 06:24:09;;;;;;;26.27;15.32;;;22.90;73.60;;;;;;7368804;19;20232;-82
2022/08/17 06:26:44;;;;;;;25.00;15.23;;;22.80;73.50;;;;;;7366185;19;20531;-83
2022/08/17 06:29:24;;;;;;;26.42;13.75;;;22.80;73.60;;;;;;7366408;19;20011;-83
2022/08/17 06:31:52;;;;;;;24.50;14.75;;;22.80;73.60;;;;;;7367404;19;20019;-83
2022/08/17 06:34:25;;;;;;;26.48;15.48;;;22.90;73.40;;;;;;7385593;19;20007;-83
2022/08/17 06:37:10;;;;;;;29.52;15.75;;;22.90;73.40;;;;;;7366512;19;20014;-83
2022/08/17 06:39:49;;;;;;;23.98;16.20;;;22.80;73.60;;;;;;7366073;19;20011;-82
2022/08/17 06:42:29;;;;;;;25.65;16.50;;;22.90;73.80;;;;;;7369481;19;20017;-82
2022/08/17 06:45:08;;;;;;;26.48;16.55;;;22.90;73.80;;;;;;7369449;19;20749;-83
2022/08/17 06:47:43;;;;;;;20.48;15.55;;;22.90;73.70;;;;;;7369907;19;20395;-81
2022/08/17 06:50:19;;;;;;;27.17;16.63;;;23.00;73.70;;;;;;7368392;19;20031;-90
2022/08/17 06:52:54;;;;;;;21.67;16.58;;;22.90;73.70;;;;;;7363444;19;20073;-86
2022/08/17 08:41:11;;;;;;;23.90;16.55;;;23.30;74.10;;;;;;7251680;19;20026;-88
2022/08/17 08:57:17;;;;;;;24.77;13.73;;;23.40;72.60;;;;;;7391753;19;20018;-89
2022/08/17 09:00:08;;;;;;;23.67;15.55;;;23.40;72.40;;;;;;7397343;19;20027;-89
2022/08/17 09:03:17;;;;;;;24.77;15.87;;;23.40;72.50;;;;;;7395788;19;20010;-89
2022/08/17 09:09:04;;;;;;;21.60;15.20;;;23.50;72.20;;;;;;7377780;19;20014;-89
2022/08/17 09:11:36;;;;;;;19.42;14.93;;;23.50;73.30;;;;;;7319304;19;20345;-90
2022/08/17 09:16:48;;;;;;;22.60;16.65;;;23.60;72.80;;;;;;7372713;19;20018;-87
2022/08/17 09:27:56;;;;;;;21.90;15.27;;;23.50;73.00;;;;;;7292007;19;20034;-88
2022/08/17 09:30:25;;;;;;;19.38;14.95;;;23.50;73.10;;;;;;7389404;19;20015;-87
2022/08/17 09:33:04;;;;;;;21.73;15.55;;;23.50;72.40;;;;;;7381004;19;20365;-87
2022/08/17 09:35:44;;;;;;;22.60;15.18;;;23.50;72.50;;;;;;7380128;19;20010;-89
2022/08/17 09:38:43;;;;;;;18.88;14.35;;;23.50;72.40;;;;;;7292125;19;20456;-87
2022/08/17 09:41:19;;;;;;;22.30;14.63;;;23.50;72.00;;;;;;7411666;19;20014;-88
2022/08/17 09:46:43;;;;;;;21.15;14.98;;;23.60;71.40;;;;;;7376200;19;20030;-91
2022/08/17 09:49:24;;;;;;;19.88;14.85;;;23.50;71.70;;;;;;7370553;19;20014;-89
2022/08/17 09:52:20;;;;;;;;;;;;;;;;;;;;;
2022/08/17 09:55:09;;;;;;;24.67;15.77;;;23.60;70.60;;;;;;7383199;19;19918;-90
2022/08/17 10:00:26;;;;;;;27.75;17.02;;;23.50;72.20;;;;;;7394383;19;20086;-89
2022/08/17 10:09:55;;;;;;;22.85;16.83;;;23.50;73.50;;;;;;7419098;19;20038;-89
2022/08/17 10:15:56;;;;;;;21.52;15.88;;;23.60;73.50;;;;;;7401312;19;20022;-87
2022/08/17 10:30:48;;;;;;;20.38;17.15;;;23.90;72.70;;;;;;7344231;19;20102;-88
2022/08/17 10:37:40;;;;;;;23.17;16.73;;;23.90;71.80;;;;;;7360159;19;20361;-89
2022/08/17 10:40:25;;;;;;;24.52;17.92;;;23.90;72.00;;;;;;7366089;19;20026;-84
2022/08/17 10:43:01;;;;;;;27.65;17.70;;;23.80;71.80;;;;;;7371169;19;20003;-89
2022/08/17 10:45:54;;;;;;;25.60;16.90;;;23.80;71.70;;;;;;7336238;19;20032;-87
2022/08/17 10:48:37;;;;;;;22.20;17.35;;;23.70;71.90;;;;;;7370393;19;20018;-85
2022/08/17 10:51:23;;;;;;;24.23;18.38;;;23.80;71.90;;;;;;7369545;19;20014;-85
2022/08/17 10:54:30;;;;;;;22.83;17.27;;;23.80;72.20;;;;;;7370036;19;20010;-85
2022/08/17 10:57:54;;;;;;;25.92;17.40;;;23.70;72.10;;;;;;7367023;19;20081;-85
2022/08/17 11:03:53;;;;;;;23.35;16.75;;;23.90;72.00;;;;;;7370678;19;20418;-85
2022/08/17 11:16:48;;;;;;;22.38;16.33;;;24.30;71.00;;;;;;7367904;19;20063;-86
2022/08/17 11:23:24;;;;;;;21.25;15.15;;;24.50;70.30;;;;;;7363154;19;20146;-86
2022/08/17 11:26:07;;;;;;;22.15;15.68;;;24.90;69.50;;;;;;7369112;19;20449;-85
2022/08/17 11:28:53;;;;;;;16.67;14.88;;;25.10;67.70;;;;;;7387862;19;20023;-85
2022/08/17 11:32:12;;;;;;;18.88;15.02;;;25.20;67.10;;;;;;7371247;19;20018;-86
2022/08/17 11:34:45;;;;;;;21.00;15.65;;;25.40;66.60;;;;;;7271615;19;2004288;-85
2022/08/17 11:37:38;;;;;;;19.45;15.75;;;25.40;65.70;;;;;;7394008;19;20438;-87
2022/08/17 11:57:01;;;;;;;23.05;15.68;;;24.90;63.90;;;;;;7386539;19;20561;-90
2022/08/17 12:00:06;;;;;;;21.13;15.70;;;24.60;64.60;;;;;;7346802;19;20026;-88
2022/08/17 12:12:32;;;;;;;16.95;12.88;;;25.10;64.70;;;;;;7379253;19;20026;-89
2022/08/17 16:44:08;;;;;;;5.63;3.42;;;31.40;43.20;;;;;;7371678;19;20016;-76
2022/08/17 16:46:39;;;;;;;7.80;3.40;;;31.40;43.10;;;;;;7391288;19;20070;-77
2022/08/17 16:49:07;;;;;;;;;;;31.10;44.40;;;;;;7372219;19;20014;-76
2022/08/17 16:51:36;;;;;;;4.75;3.50;;;30.70;45.30;;;;;;7370721;19;19999;-76
2022/08/17 16:54:07;;;;;;;7.10;3.80;;;30.30;46.30;;;;;;7370773;19;20053;-76
2022/08/17 16:56:36;;;;;;;5.60;4.15;;;29.90;47.80;;;;;;7372186;19;20492;-76
2022/08/17 16:59:10;;;;;;;6.20;4.38;;;29.60;49.00;;;;;;7371915;19;20019;-75
2022/08/17 17:01:41;;;;;;;7.45;4.35;;;29.30;49.20;;;;;;7393652;19;20015;-76
2022/08/17 17:04:15;;;;;;;11.88;4.18;;;28.90;49.50;;;;;;7373092;19;20019;-76
2022/08/17 17:06:51;;;;;;;8.57;3.78;;;28.30;48.80;;;;;;7374252;19;20025;-75
2022/08/17 17:09:25;;;;;;;5.57;3.60;;;27.90;49.20;;;;;;7369733;19;20042;-75
2022/08/17 17:11:56;;;;;;;4.90;3.10;;;27.60;49.30;;;;;;7365773;19;20014;-75
2022/08/17 17:14:33;;;;;;;5.55;2.25;;;27.30;51.10;;;;;;7367096;19;20028;-75
2022/08/17 17:17:06;;;;;;;23.73;4.28;;;27.00;52.40;;;;;;7369418;19;20453;-79
2022/08/17 17:19:40;;;;;;;24.63;4.50;;;26.40;57.50;;;;;;7394218;19;20027;-78
2022/08/17 17:22:16;;;;;;;11.35;4.00;;;25.70;60.40;;;;;;7373027;19;20011;-79
2022/08/17 17:24:51;;;;;;;14.93;4.82;;;25.20;61.00;;;;;;7373560;19;20460;-79
2022/08/17 17:27:31;;;;;;;7.38;3.35;;;24.80;64.60;;;;;;7372292;19;20061;-79
2022/08/17 17:30:09;;;;;;;9.27;4.85;;;24.40;64.90;;;;;;7370618;19;20509;-78
2022/08/17 17:32:42;;;;;;;16.83;4.05;;;24.20;67.20;;;;;;7371597;19;20014;-78
2022/08/17 17:35:15;;;;;;;11.00;3.50;;;24.10;71.10;;;;;;7370899;19;20022;-78
2022/08/17 17:37:46;;;;;;;8.13;3.20;;;24.10;72.00;;;;;;7391938;19;20029;-77
2022/08/17 17:40:19;;;;;;;10.23;3.43;;;24.10;72.10;;;;;;7372928;19;20083;-78
2022/08/17 17:42:49;;;;;;;5.88;3.40;;;24.30;73.60;;;;;;7371601;19;20011;-78
2022/08/17 17:45:24;;;;;;;11.52;3.00;;;24.40;71.30;;;;;;7372695;19;20018;-78
2022/08/17 17:47:53;;;;;;;8.82;2.90;;;24.40;72.30;;;;;;7373210;19;20038;-79
2022/08/17 17:50:31;;;;;;;7.20;3.00;;;24.70;71.10;;;;;;7372521;19;20022;-79
2022/08/17 17:53:06;;;;;;;8.75;2.63;;;25.00;69.10;;;;;;7368639;19;20014;-77
2022/08/17 17:55:55;;;;;;;9.02;3.30;;;25.50;68.70;;;;;;7391543;19;20107;-76
2022/08/17 17:58:34;;;;;;;10.35;4.03;;;25.90;69.40;;;;;;7369675;19;20021;-77
2022/08/17 18:01:18;;;;;;;14.60;4.18;;;25.90;66.10;;;;;;7365974;19;20562;-80
2022/08/17 18:04:05;;;;;;;12.80;4.10;;;25.80;68.60;;;;;;7368669;19;20018;-78
2022/08/17 18:06:44;;;;;;;16.80;6.28;;;25.60;67.70;;;;;;7368555;19;20006;-77
2022/08/17 18:09:22;;;;;;;11.15;4.50;;;25.40;69.10;;;;;;7369175;19;20022;-77
2022/08/17 18:12:09;;;;;;;8.77;3.50;;;25.20;69.30;;;;;;7370418;19;20042;-76
2022/08/17 18:14:52;;;;;;;8.40;3.92;;;25.00;67.50;;;;;;7369799;19;20014;-78
2022/08/17 18:17:24;;;;;;;5.93;4.03;;;24.70;69.20;;;;;;7371103;19;20102;-78
2022/08/17 18:19:55;;;;;;;5.97;3.65;;;24.50;70.30;;;;;;7369124;19;20011;-78
2022/08/17 18:22:25;;;;;;;9.18;3.58;;;24.30;71.10;;;;;;7393963;19;20018;-79
2022/08/17 18:24:56;;;;;;;10.23;4.03;;;24.20;72.20;;;;;;7376406;19;20007;-79
2022/08/17 18:27:26;;;;;;;;;;;24.20;72.20;;;;;;7375637;19;20085;-79
2022/08/17 18:29:57;;;;;;;8.35;4.07;;;24.10;71.20;;;;;;7372657;19;19922;-79
2022/08/17 18:32:33;;;;;;;5.90;3.92;;;24.10;72.70;;;;;;7372859;19;20485;-79
2022/08/17 18:35:26;;;;;;;6.93;4.40;;;24.00;72.80;;;;;;7372851;19;20022;-79
2022/08/17 18:37:57;;;;;;;9.52;4.78;;;24.00;72.30;;;;;;7371792;19;20019;-79
2022/08/17 18:40:36;;;;;;;6.73;4.80;;;24.00;72.50;;;;;;7393311;19;20015;-79
2022/08/17 18:43:16;;;;;;;9.25;4.50;;;23.90;72.40;;;;;;7373500;19;20019;-79
2022/08/17 18:45:49;;;;;;;8.30;4.10;;;23.80;73.30;;;;;;7372510;19;20018;-79
2022/08/17 18:48:35;;;;;;;10.85;4.65;;;23.80;74.20;;;;;;7373349;19;20014;-79
2022/08/17 18:51:24;;;;;;;9.02;4.00;;;23.70;73.70;;;;;;7374656;19;20089;-80
2022/08/17 18:54:19;;;;;;;9.07;4.10;;;23.70;73.30;;;;;;7373153;19;20082;-79
2022/08/17 18:56:52;;;;;;;5.15;3.28;;;23.70;73.70;;;;;;7369990;19;20074;-79
2022/08/17 18:59:30;;;;;;;8.88;3.53;;;23.70;72.70;;;;;;7373043;19;20062;-80
2022/08/17 19:02:17;;;;;;;5.20;3.63;;;23.70;73.20;;;;;;7376815;19;20279;-79
2022/08/17 19:05:01;;;;;;;4.68;3.40;;;23.70;73.00;;;;;;7376896;19;20010;-78
2022/08/17 19:07:33;;;;;;;8.93;3.67;;;23.70;73.00;;;;;;7394478;19;20018;-78
2022/08/17 19:10:13;;;;;;;5.15;3.47;;;23.70;71.90;;;;;;7369697;19;20026;-79
2022/08/17 19:12:46;;;;;;;5.45;3.53;;;23.60;72.10;;;;;;7370985;19;20062;-78
2022/08/17 19:15:19;;;;;;;8.10;3.67;;;23.50;71.90;;;;;;7373268;19;20330;-78
2022/08/17 19:17:56;;;;;;;7.72;3.65;;;23.50;72.10;;;;;;7372563;19;20010;-78
2022/08/17 19:20:33;;;;;;;6.10;3.78;;;23.40;71.20;;;;;;7370639;19;20024;-78
2022/08/17 19:23:12;;;;;;;5.68;4.03;;;23.30;71.30;;;;;;7369127;19;20095;-78
2022/08/17 19:25:47;;;;;;;8.65;3.50;;;23.20;71.90;;;;;;7394462;19;20022;-78
2022/08/17 19:28:22;;;;;;;7.03;3.28;;;23.20;71.70;;;;;;7369781;19;20082;-78
2022/08/17 19:30:52;;;;;;;6.55;3.38;;;23.20;71.90;;;;;;7364595;19;20040;-78
2022/08/17 19:33:21;;;;;;;6.35;3.63;;;23.20;72.00;;;;;;7366571;19;20024;-78
2022/08/17 19:36:02;;;;;;;6.13;3.65;;;23.20;71.60;;;;;;7365766;19;20014;-78
2022/08/17 19:38:36;;;;;;;;;;;23.20;72.50;;;;;;7365233;19;20086;-78
2022/08/17 19:41:11;;;;;;;9.23;3.63;;;23.20;73.00;;;;;;7363741;19;19936;-78
2022/08/17 19:44:08;;;;;;;8.30;3.72;;;23.20;72.20;;;;;;7386294;19;20046;-78
2022/08/17 19:46:45;;;;;;;8.35;3.90;;;23.10;72.70;;;;;;7365275;19;20429;-78
2022/08/17 19:49:22;;;;;;;4.00;3.60;;;23.20;71.70;;;;;;7364578;19;20310;-78
2022/08/17 19:51:59;;;;;;;3.65;3.05;;;23.10;72.30;;;;;;7366217;19;20021;-78
2022/08/17 19:54:36;;;;;;;7.28;3.35;;;23.10;71.60;;;;;;7373433;19;20101;-78
2022/08/17 19:57:12;;;;;;;4.13;3.25;;;23.10;71.70;;;;;;7373058;19;20014;-77
2022/08/17 19:59:50;;;;;;;9.98;3.97;;;23.10;71.70;;;;;;7369857;19;20097;-79
2022/08/17 20:02:32;;;;;;;4.57;3.42;;;23.10;71.60;;;;;;7372561;19;20462;-79
2022/08/17 20:05:06;;;;;;;11.77;3.78;;;23.10;72.30;;;;;;7373006;19;20035;-79
2022/08/17 20:07:49;;;;;;;9.90;3.53;;;23.00;71.70;;;;;;7391167;19;20035;-79
2022/08/17 20:10:28;;;;;;;7.22;3.83;;;23.00;71.50;;;;;;7371705;19;20006;-79
2022/08/17 20:13:01;;;;;;;6.55;4.10;;;23.00;71.20;;;;;;7371254;19;20102;-80
2022/08/17 20:15:33;;;;;;;4.93;3.75;;;23.00;70.70;;;;;;7372083;19;20015;-79
2022/08/17 20:18:06;;;;;;;4.70;3.90;;;22.90;70.00;;;;;;7371253;19;20493;-79
2022/08/17 20:20:44;;;;;;;6.68;4.22;;;22.80;70.10;;;;;;7368413;19;20093;-79
2022/08/17 20:23:30;;;;;;;4.97;3.70;;;22.80;70.50;;;;;;7370846;19;20089;-79
2022/08/17 20:26:10;;;;;;;5.80;3.45;;;22.70;70.90;;;;;;7372824;19;20078;-79
2022/08/17 20:28:40;;;;;;;9.02;3.63;;;22.70;71.90;;;;;;7393967;19;20019;-79
2022/08/17 20:31:38;;;;;;;4.35;3.53;;;22.70;72.60;;;;;;7370572;19;20099;-79
2022/08/17 20:34:36;;;;;;;5.78;3.20;;;22.80;72.30;;;;;;7371113;19;20138;-79
2022/08/17 20:37:08;;;;;;;9.80;4.03;;;22.80;72.30;;;;;;7371322;19;20025;-79
2022/08/17 20:39:42;;;;;;;8.02;4.20;;;22.80;72.20;;;;;;7371116;19;20117;-80
2022/08/17 20:42:28;;;;;;;7.50;3.80;;;22.90;72.50;;;;;;7370533;19;20092;-79
2022/08/17 20:45:01;;;;;;;8.32;4.72;;;22.90;71.70;;;;;;7370386;19;20017;-79
2022/08/17 20:47:34;;;;;;;9.63;4.50;;;22.90;72.30;;;;;;7369576;19;20011;-79
2022/08/17 20:50:07;;;;;;;6.18;4.18;;;22.90;72.40;;;;;;7371147;19;20018;-79
2022/08/17 20:52:52;;;;;;;5.80;3.90;;;22.90;71.80;;;;;;7392509;19;20024;-79
2022/08/17 20:55:57;;;;;;;5.85;4.43;;;22.90;71.50;;;;;;7370027;19;20018;-79
2022/08/17 20:58:48;;;;;;;7.35;4.00;;;22.90;71.60;;;;;;7370256;19;20437;-79
2022/08/17 21:01:22;;;;;;;;;;;22.90;71.30;;;;;;7369140;19;20141;-79
2022/08/17 21:03:55;;;;;;;7.80;4.50;;;22.90;71.20;;;;;;7368718;19;19935;-79
2022/08/17 21:06:26;;;;;;;5.97;3.83;;;22.80;71.80;;;;;;7369829;19;20010;-79
2022/08/17 21:08:59;;;;;;;11.55;4.47;;;22.80;72.50;;;;;;7369840;19;20174;-79
2022/08/17 21:11:58;;;;;;;9.98;4.22;;;22.80;72.30;;;;;;7368713;19;20018;-80
2022/08/17 21:14:56;;;;;;;8.43;4.25;;;22.80;72.50;;;;;;7370416;19;20011;-80
2022/08/17 21:17:41;;;;;;;7.13;4.85;;;22.80;71.30;;;;;;7370130;19;20014;-80
2022/08/17 21:20:31;;;;;;;7.30;5.43;;;22.70;71.00;;;;;;7370627;19;20014;-80
2022/08/17 21:23:17;;;;;;;14.05;4.82;;;22.70;72.00;;;;;;7368754;19;20058;-81
2022/08/17 21:26:19;;;;;;;6.10;4.82;;;22.70;72.30;;;;;;7378044;19;20025;-80
2022/08/17 21:28:55;;;;;;;;;;;22.70;72.50;;;;;;7370039;19;20026;-81
2022/08/17 21:31:35;;;;;;;14.35;4.80;;;22.70;72.00;;;;;;7390195;19;19922;-80
2022/08/17 21:34:24;;;;;;;6.68;4.15;;;22.60;71.30;;;;;;7368306;19;20369;-80
2022/08/17 21:36:55;;;;;;;7.85;4.40;;;22.60;70.80;;;;;;7369786;19;20039;-81
2022/08/17 21:39:32;;;;;;;9.13;4.50;;;22.60;71.30;;;;;;7369748;19;20488;-80